Time;durP1;ratioP1;P1;durP2;ratioP2;P2;SDS_P1;SDS_P2;PMS_P1;PMS_P2;Temp;Humidity;BMP_temperature;BMP_pressure;BME280_temperature;BME280_humidity;BME280_pressure;Samples;Min_cycle;Max_cycle;Signal;HPM_P1;HPM_P2
2023/05/27 00:02:23;;;;;;;10.77;9.05;;;;;;;;;;5072993;28;20372;-66
2023/05/27 00:04:51;;;;;;;11.95;9.35;;;;;;;;;;5073067;28;20060;-66
2023/05/27 00:07:19;;;;;;;11.52;10.32;;;;;;;;;;5072944;28;20048;-66
2023/05/27 00:09:47;;;;;;;11.25;9.18;;;;;;;;;;5072596;28;20048;-66
2023/05/27 00:12:15;;;;;;;15.25;9.82;;;;;;;;;;5055168;28;20062;-66
2023/05/27 00:14:42;;;;;;;11.00;9.90;;;;;;;;;;5073028;28;20040;-66
2023/05/27 00:17:13;;;;;;;15.32;10.00;;;;;;;;;;5072684;28;20076;-66
2023/05/27 00:19:42;;;;;;;13.32;9.70;;;;;;;;;;5072761;28;20098;-66
2023/05/27 00:22:10;;;;;;;15.10;9.00;;;;;;;;;;5072803;28;20076;-65
2023/05/27 00:24:39;;;;;;;11.75;9.05;;;;;;;;;;5071840;28;20072;-66
2023/05/27 00:27:07;;;;;;;17.88;9.35;;;;;;;;;;5072842;28;20101;-66
2023/05/27 00:29:35;;;;;;;12.32;8.95;;;;;;;;;;5054850;28;20101;-65
2023/05/27 00:32:03;;;;;;;12.38;8.93;;;;;;;;;;5072678;28;20039;-64
2023/05/27 00:34:31;;;;;;;14.30;9.32;;;;;;;;;;5072713;28;20041;-65
2023/05/27 00:36:59;;;;;;;11.63;9.35;;;;;;;;;;5054586;28;20036;-65
2023/05/27 00:39:26;;;;;;;11.52;10.18;;;;;;;;;;5037936;28;20057;-65
2023/05/27 00:41:54;;;;;;;12.35;9.68;;;;;;;;;;5054581;28;20151;-65
2023/05/27 00:44:22;;;;;;;11.55;9.68;;;;;;;;;;5072557;28;20036;-65
2023/05/27 00:46:49;;;;;;;11.15;9.48;;;;;;;;;;5054552;28;20044;-65
2023/05/27 00:49:18;;;;;;;11.70;9.80;;;;;;;;;;5054622;28;20509;-65
2023/05/27 00:51:46;;;;;;;12.63;9.40;;;;;;;;;;5054512;28;20033;-65
2023/05/27 00:54:14;;;;;;;12.25;9.38;;;;;;;;;;5054589;28;20078;-65
2023/05/27 00:56:42;;;;;;;17.42;10.18;;;;;;;;;;5054289;28;20036;-65
2023/05/27 00:59:09;;;;;;;15.18;9.18;;;;;;;;;;5054358;28;20127;-65
2023/05/27 01:01:38;;;;;;;12.77;9.70;;;;;;;;;;5054553;28;20074;-65
2023/05/27 01:04:06;;;;;;;11.57;9.55;;;;;;;;;;5054100;28;20045;-65
2023/05/27 01:06:39;;;;;;;14.07;9.70;;;;;;;;;;5072062;28;20039;-65
2023/05/27 01:09:15;;;;;;;16.83;10.50;;;;;;;;;;5072238;28;20044;-65
2023/05/27 01:11:51;;;;;;;14.13;10.02;;;;;;;;;;5053937;28;20059;-64
2023/05/27 01:14:21;;;;;;;16.23;10.27;;;;;;;;;;5054295;28;20119;-65
2023/05/27 01:16:50;;;;;;;17.15;10.25;;;;;;;;;;5054137;28;20045;-65
2023/05/27 01:19:22;;;;;;;20.90;10.48;;;;;;;;;;5072172;28;20123;-65
2023/05/27 01:21:50;;;;;;;14.73;10.32;;;;;;;;;;5054357;28;20449;-65
2023/05/27 01:24:18;;;;;;;14.18;10.10;;;;;;;;;;5071977;28;20048;-65
2023/05/27 01:26:46;;;;;;;15.88;10.80;;;;;;;;;;5054121;28;20041;-65
2023/05/27 01:29:14;;;;;;;16.42;10.88;;;;;;;;;;5054075;28;20056;-65
2023/05/27 01:31:47;;;;;;;13.00;9.27;;;;;;;;;;5053915;28;20044;-64
2023/05/27 01:34:17;;;;;;;18.23;10.38;;;;;;;;;;5054067;28;20044;-64
2023/05/27 01:36:47;;;;;;;14.57;10.90;;;;;;;;;;5057364;28;20063;-64
2023/05/27 01:39:15;;;;;;;13.18;10.57;;;;;;;;;;5057656;28;20102;-65
2023/05/27 01:41:43;;;;;;;15.43;10.60;;;;;;;;;;5057847;28;20049;-65
2023/05/27 01:44:16;;;;;;;16.38;10.73;;;;;;;;;;5057710;28;20044;-64
2023/05/27 01:46:45;;;;;;;15.23;11.40;;;;;;;;;;5057405;28;20044;-64
2023/05/27 01:49:13;;;;;;;14.15;10.20;;;;;;;;;;5057411;28;20049;-64
2023/05/27 01:51:40;;;;;;;13.35;10.43;;;;;;;;;;5057566;28;20044;-66
2023/05/27 01:54:09;;;;;;;17.67;10.60;;;;;;;;;;5075183;28;20072;-65
2023/05/27 01:56:36;;;;;;;17.05;10.65;;;;;;;;;;5057220;28;20041;-64
2023/05/27 01:59:04;;;;;;;12.85;10.38;;;;;;;;;;5057853;28;20051;-65
2023/05/27 02:01:33;;;;;;;16.95;10.90;;;;;;;;;;5057433;28;20037;-66
2023/05/27 02:04:03;;;;;;;14.07;10.70;;;;;;;;;;5057416;28;20048;-66
2023/05/27 02:06:32;;;;;;;14.50;10.80;;;;;;;;;;5057487;28;20556;-64
2023/05/27 02:09:00;;;;;;;11.05;9.68;;;;;;;;;;5075231;28;20048;-64
2023/05/27 02:11:27;;;;;;;11.60;9.70;;;;;;;;;;5057457;28;20041;-64
2023/05/27 02:13:55;;;;;;;14.23;10.80;;;;;;;;;;5057191;28;20052;-64
2023/05/27 02:16:24;;;;;;;12.90;10.35;;;;;;;;;;5075054;28;20049;-64
2023/05/27 02:18:52;;;;;;;15.25;10.70;;;;;;;;;;5056995;28;20401;-64
2023/05/27 02:21:20;;;;;;;14.90;10.18;;;;;;;;;;5057192;28;20060;-64
2023/05/27 02:23:47;;;;;;;13.32;9.82;;;;;;;;;;5075143;28;20044;-64
2023/05/27 02:26:17;;;;;;;13.25;9.90;;;;;;;;;;5075084;28;20040;-64
2023/05/27 02:28:44;;;;;;;13.02;10.93;;;;;;;;;;5074827;28;20036;-64
2023/05/27 02:31:12;;;;;;;15.30;9.98;;;;;;;;;;5056963;28;20046;-64
2023/05/27 02:33:39;;;;;;;19.45;10.57;;;;;;;;;;5056755;28;20427;-64
2023/05/27 02:36:07;;;;;;;15.00;10.95;;;;;;;;;;5056809;28;20052;-64
2023/05/27 02:38:35;;;;;;;12.88;11.18;;;;;;;;;;5056800;28;20053;-64
2023/05/27 02:41:03;;;;;;;16.63;10.95;;;;;;;;;;5074914;28;20387;-64
2023/05/27 02:43:30;;;;;;;16.38;11.10;;;;;;;;;;5056955;28;20041;-64
2023/05/27 02:45:58;;;;;;;12.90;10.73;;;;;;;;;;5074495;28;20041;-64
2023/05/27 02:48:26;;;;;;;13.15;10.50;;;;;;;;;;5039244;28;20376;-64
2023/05/27 02:50:54;;;;;;;17.30;12.23;;;;;;;;;;5056797;28;20037;-64
2023/05/27 02:53:21;;;;;;;13.85;11.32;;;;;;;;;;5074540;28;20449;-64
2023/05/27 02:55:50;;;;;;;15.82;11.65;;;;;;;;;;5056626;28;20040;-64
2023/05/27 02:58:18;;;;;;;12.60;11.10;;;;;;;;;;5056302;28;20068;-64
2023/05/27 03:00:45;;;;;;;14.25;10.75;;;;;;;;;;5056470;28;20067;-64
2023/05/27 03:03:15;;;;;;;16.10;10.82;;;;;;;;;;5074141;28;20067;-64
2023/05/27 03:05:43;;;;;;;17.08;11.20;;;;;;;;;;5056181;28;20052;-64
2023/05/27 03:08:10;;;;;;;15.77;11.57;;;;;;;;;;5073939;28;20143;-64
2023/05/27 03:10:38;;;;;;;17.90;11.70;;;;;;;;;;5056225;28;20512;-64
2023/05/27 03:13:05;;;;;;;13.98;11.50;;;;;;;;;;5056292;28;20478;-64
2023/05/27 03:15:35;;;;;;;17.75;11.65;;;;;;;;;;5056091;28;20391;-64
2023/05/27 03:18:03;;;;;;;15.73;11.75;;;;;;;;;;5056270;28;20113;-64
2023/05/27 03:20:31;;;;;;;18.20;10.95;;;;;;;;;;5056014;28;20051;-64
2023/05/27 03:22:59;;;;;;;13.57;10.70;;;;;;;;;;5055825;28;20060;-64
2023/05/27 03:25:28;;;;;;;14.57;10.98;;;;;;;;;;5039772;28;20083;-64
2023/05/27 03:27:59;;;;;;;15.05;11.18;;;;;;;;;;5055930;28;20049;-64
2023/05/27 03:30:26;;;;;;;17.70;12.48;;;;;;;;;;5073564;28;20047;-64
2023/05/27 03:32:55;;;;;;;14.75;12.43;;;;;;;;;;5055549;28;20469;-64
2023/05/27 03:35:32;;;;;;;18.63;12.13;;;;;;;;;;5055676;28;20056;-63
2023/05/27 03:38:00;;;;;;;18.40;11.90;;;;;;;;;;5052324;28;20057;-64
2023/05/27 03:40:27;;;;;;;14.68;12.00;;;;;;;;;;5052292;28;20111;-63
2023/05/27 03:42:55;;;;;;;17.63;12.05;;;;;;;;;;5052190;28;20056;-64
2023/05/27 03:45:23;;;;;;;14.98;11.55;;;;;;;;;;5052164;28;20047;-64
2023/05/27 03:47:51;;;;;;;15.27;11.50;;;;;;;;;;5052057;28;20052;-64
2023/05/27 03:50:20;;;;;;;17.23;11.07;;;;;;;;;;5052090;28;20076;-64
2023/05/27 03:52:48;;;;;;;15.05;10.90;;;;;;;;;;5052519;28;20041;-64
2023/05/27 03:55:16;;;;;;;15.15;10.82;;;;;;;;;;5053619;28;20037;-63
2023/05/27 03:57:44;;;;;;;17.20;10.60;;;;;;;;;;5052161;28;20078;-64
2023/05/27 04:00:12;;;;;;;13.88;10.55;;;;;;;;;;5052314;28;20060;-63
2023/05/27 04:02:48;;;;;;;16.60;10.45;;;;;;;;;;5052339;28;20089;-64
2023/05/27 04:05:16;;;;;;;12.63;10.32;;;;;;;;;;5052242;28;20560;-63
2023/05/27 04:07:44;;;;;;;16.45;11.63;;;;;;;;;;5051759;28;20045;-64
2023/05/27 04:10:12;;;;;;;15.68;11.57;;;;;;;;;;5051967;28;20458;-64
2023/05/27 04:12:41;;;;;;;15.73;11.50;;;;;;;;;;5052031;28;20090;-64
2023/05/27 04:15:08;;;;;;;17.48;11.45;;;;;;;;;;5053329;28;20065;-64
2023/05/27 04:17:36;;;;;;;18.80;11.50;;;;;;;;;;5053459;28;20116;-64
2023/05/27 04:20:13;;;;;;;17.63;11.30;;;;;;;;;;5051610;28;20498;-63
2023/05/27 04:22:44;;;;;;;15.35;10.95;;;;;;;;;;5051492;28;20170;-63
2023/05/27 04:25:12;;;;;;;12.60;11.00;;;;;;;;;;5051568;28;20041;-63
2023/05/27 04:27:58;;;;;;;16.95;11.20;;;;;;;;;;5051308;28;20041;-66
2023/05/27 04:30:28;;;;;;;16.05;11.38;;;;;;;;;;5051294;28;20622;-64
2023/05/27 04:32:56;;;;;;;13.52;10.82;;;;;;;;;;5051186;28;20033;-64
2023/05/27 04:35:24;;;;;;;15.70;11.20;;;;;;;;;;5052493;28;20037;-63
2023/05/27 04:37:51;;;;;;;19.17;11.10;;;;;;;;;;5051281;28;20072;-63
2023/05/27 04:40:21;;;;;;;14.38;10.77;;;;;;;;;;5051252;28;20067;-63
2023/05/27 04:43:15;;;;;;;15.40;11.00;;;;;;;;;;5051316;28;20053;-63
2023/05/27 04:45:43;;;;;;;20.05;11.13;;;;;;;;;;5051127;28;20045;-64
2023/05/27 04:48:11;;;;;;;19.05;11.77;;;;;;;;;;5051185;28;20383;-63
2023/05/27 04:50:39;;;;;;;14.63;11.27;;;;;;;;;;5052509;28;20380;-63
2023/05/27 04:53:06;;;;;;;14.63;10.73;;;;;;;;;;5051016;28;20033;-63
2023/05/27 04:55:35;;;;;;;14.55;10.88;;;;;;;;;;5050855;28;20048;-63
2023/05/27 04:58:05;;;;;;;17.15;11.27;;;;;;;;;;5050876;28;20556;-63
2023/05/27 05:00:38;;;;;;;16.42;10.70;;;;;;;;;;5052321;28;20049;-64
2023/05/27 05:03:08;;;;;;;14.40;11.23;;;;;;;;;;5056868;28;20128;-63
2023/05/27 05:05:36;;;;;;;16.13;11.45;;;;;;;;;;5052305;28;20041;-63
2023/05/27 05:08:07;;;;;;;14.23;10.35;;;;;;;;;;5058666;28;20045;-63
2023/05/27 05:10:35;;;;;;;12.88;10.85;;;;;;;;;;5036270;28;20091;-63
2023/05/27 05:13:04;;;;;;;12.85;10.35;;;;;;;;;;5055067;28;20486;-63
2023/05/27 05:15:32;;;;;;;17.85;10.48;;;;;;;;;;5054878;28;20494;-63
2023/05/27 05:17:59;;;;;;;17.38;11.15;;;;;;;;;;5055012;28;20086;-63
2023/05/27 05:20:29;;;;;;;15.27;11.18;;;;;;;;;;5054763;28;20049;-63
2023/05/27 05:22:57;;;;;;;16.20;11.88;;;;;;;;;;5054759;28;20079;-63
2023/05/27 05:25:25;;;;;;;16.20;11.75;;;;;;;;;;5054831;28;20140;-63
2023/05/27 05:27:55;;;;;;;18.13;10.55;;;;;;;;;;5054785;28;20132;-63
2023/05/27 05:30:25;;;;;;;14.02;10.85;;;;;;;;;;5054658;28;20514;-63
2023/05/27 05:32:53;;;;;;;12.77;9.77;;;;;;;;;;5054946;28;20132;-63
2023/05/27 05:35:22;;;;;;;14.68;10.65;;;;;;;;;;5061064;28;20052;-63
2023/05/27 05:37:55;;;;;;;15.85;10.27;;;;;;;;;;5071357;28;20048;-63
2023/05/27 05:40:23;;;;;;;11.40;9.75;;;;;;;;;;5074399;28;20044;-63
2023/05/27 05:43:07;;;;;;;11.43;10.23;;;;;;;;;;5076080;28;20048;-64
2023/05/27 05:45:35;;;;;;;13.27;9.65;;;;;;;;;;5074422;28;20041;-63
2023/05/27 05:48:02;;;;;;;14.18;9.93;;;;;;;;;;5071115;28;20037;-63
2023/05/27 05:50:32;;;;;;;15.30;10.02;;;;;;;;;;5065578;28;20082;-64
2023/05/27 05:53:00;;;;;;;14.95;9.55;;;;;;;;;;5054348;28;20584;-63
2023/05/27 05:55:28;;;;;;;15.88;10.95;;;;;;;;;;5042682;28;20033;-64
2023/05/27 05:57:57;;;;;;;13.23;9.68;;;;;;;;;;5054207;28;20376;-63
2023/05/27 06:00:26;;;;;;;17.60;10.50;;;;;;;;;;5021632;28;20045;-64
2023/05/27 06:03:05;;;;;;;11.40;9.55;;;;;;;;;;5054473;28;20051;-64
2023/05/27 06:05:42;;;;;;;16.38;10.73;;;;;;;;;;5054210;28;20051;-64
2023/05/27 06:08:10;;;;;;;13.35;9.90;;;;;;;;;;5054167;28;20136;-64
2023/05/27 06:10:41;;;;;;;14.52;9.52;;;;;;;;;;5054151;28;20475;-64
2023/05/27 06:13:10;;;;;;;15.77;9.90;;;;;;;;;;5054320;28;20487;-64
2023/05/27 06:15:39;;;;;;;12.43;9.23;;;;;;;;;;5054147;28;20052;-64
2023/05/27 06:30:04;;;;;;;17.40;11.95;;;;;;;;;;5130276;27;20118;-69
2023/05/27 06:32:36;;;;;;;14.30;10.13;;;;;;;;;;5092818;28;20501;-69
2023/05/27 06:35:04;;;;;;;13.40;10.07;;;;;;;;;;5108306;28;20501;-67
2023/05/27 06:37:32;;;;;;;13.13;9.77;;;;;;;;;;5108020;28;20044;-69
2023/05/27 06:39:59;;;;;;;14.20;10.07;;;;;;;;;;5092102;28;20050;-70
2023/05/27 06:42:27;;;;;;;18.58;9.77;;;;;;;;;;5108386;28;20032;-70
2023/05/27 06:45:06;;;;;;;13.52;10.63;;;;;;;;;;5108796;28;20056;-70
2023/05/27 06:47:35;;;;;;;12.95;10.02;;;;;;;;;;5108270;28;20048;-70
2023/05/27 06:50:03;;;;;;;15.68;10.43;;;;;;;;;;5107956;28;20081;-70
2023/05/27 06:52:31;;;;;;;14.38;10.93;;;;;;;;;;5107411;28;20075;-70
2023/05/27 06:55:13;;;;;;;15.27;10.73;;;;;;;;;;5107981;28;20122;-70
2023/05/27 06:57:59;;;;;;;13.98;10.25;;;;;;;;;;5109894;28;20055;-70
2023/05/27 07:00:45;;;;;;;14.85;10.05;;;;;;;;;;5110160;28;20054;-70
2023/05/27 07:03:39;;;;;;;14.93;9.93;;;;;;;;;;5108499;28;20060;-70
2023/05/27 07:06:09;;;;;;;13.43;9.77;;;;;;;;;;5108497;28;20093;-71
2023/05/27 07:08:49;;;;;;;11.35;9.43;;;;;;;;;;5108474;28;20089;-71
2023/05/27 07:11:21;;;;;;;16.13;9.65;;;;;;;;;;5108539;28;20090;-71
2023/05/27 07:13:50;;;;;;;14.07;9.85;;;;;;;;;;5107951;28;20138;-70
2023/05/27 07:16:21;;;;;;;14.02;9.75;;;;;;;;;;5090821;28;20036;-70
2023/05/27 07:18:50;;;;;;;13.98;9.02;;;;;;;;;;5107350;28;20063;-70
2023/05/27 07:21:18;;;;;;;14.57;8.60;;;;;;;;;;5107551;28;20106;-71
2023/05/27 07:23:46;;;;;;;12.15;8.35;;;;;;;;;;5107493;28;20047;-69
2023/05/27 07:26:26;;;;;;;13.52;9.93;;;;;;;;;;5107751;28;20381;-70
2023/05/27 07:28:57;;;;;;;14.00;9.07;;;;;;;;;;5106348;28;20056;-69
2023/05/27 07:31:46;;;;;;;15.02;9.05;;;;;;;;;;5095297;28;20048;-70
2023/05/27 07:34:16;;;;;;;12.85;9.70;;;;;;;;;;5094295;28;20040;-71
2023/05/27 07:36:44;;;;;;;13.73;10.02;;;;;;;;;;5094254;28;20048;-70
2023/05/27 07:39:11;;;;;;;11.05;8.80;;;;;;;;;;5094120;28;20048;-70
2023/05/27 07:41:40;;;;;;;14.00;8.57;;;;;;;;;;5094100;28;20401;-70
2023/05/27 07:44:08;;;;;;;11.13;9.07;;;;;;;;;;5094480;28;20059;-70
2023/05/27 07:46:38;;;;;;;11.93;8.60;;;;;;;;;;5094261;28;20060;-70
2023/05/27 07:49:06;;;;;;;10.13;8.57;;;;;;;;;;5095409;28;20381;-70
2023/05/27 07:51:54;;;;;;;10.63;8.52;;;;;;;;;;5094038;28;20040;-70
2023/05/27 07:54:22;;;;;;;11.45;8.05;;;;;;;;;;5093938;28;20044;-70
2023/05/27 07:56:50;;;;;;;12.70;8.65;;;;;;;;;;5077405;28;20036;-70
2023/05/27 07:59:18;;;;;;;12.20;8.15;;;;;;;;;;5093683;28;20470;-70
2023/05/27 08:01:45;;;;;;;10.95;8.55;;;;;;;;;;5093828;28;20032;-69
2023/05/27 08:04:13;;;;;;;11.57;7.88;;;;;;;;;;5093692;28;20058;-68
2023/05/27 08:07:30;;;;;;;8.32;7.50;;;;;;;;;;5072492;28;20059;-69
2023/05/27 08:10:09;;;;;;;13.70;7.57;;;;;;;;;;5055695;28;20059;-70
2023/05/27 08:13:03;;;;;;;8.43;7.53;;;;;;;;;;5061213;28;20067;-69
2023/05/27 08:15:39;;;;;;;13.10;8.57;;;;;;;;;;5093600;28;20484;-69
2023/05/27 08:18:27;;;;;;;10.23;7.80;;;;;;;;;;5094768;28;20040;-69
2023/05/27 08:21:05;;;;;;;10.25;8.02;;;;;;;;;;5093498;28;20044;-69
2023/05/27 08:23:46;;;;;;;8.88;7.97;;;;;;;;;;5093643;28;20051;-69
2023/05/27 08:26:23;;;;;;;11.43;8.07;;;;;;;;;;5092951;28;20064;-70
2023/05/27 08:28:56;;;;;;;11.48;8.50;;;;;;;;;;5092955;28;20055;-69
2023/05/27 08:31:44;;;;;;;10.82;9.02;;;;;;;;;;5093663;28;20048;-69
2023/05/27 08:34:12;;;;;;;10.48;8.13;;;;;;;;;;5092871;28;20050;-70
2023/05/27 08:36:40;;;;;;;11.00;8.15;;;;;;;;;;5092919;28;20067;-69
2023/05/27 08:39:07;;;;;;;8.95;7.43;;;;;;;;;;5092898;28;20044;-69
2023/05/27 08:41:42;;;;;;;11.15;7.63;;;;;;;;;;5091959;28;20097;-68
2023/05/27 08:44:10;;;;;;;13.65;8.00;;;;;;;;;;5092843;28;20052;-69
2023/05/27 08:46:56;;;;;;;12.43;7.75;;;;;;;;;;5092824;28;20127;-69
2023/05/27 08:49:24;;;;;;;14.23;7.95;;;;;;;;;;5092598;28;20048;-69
2023/05/27 08:51:52;;;;;;;9.50;7.82;;;;;;;;;;5092980;28;20477;-69
2023/05/27 08:54:22;;;;;;;9.02;8.13;;;;;;;;;;5092653;28;20515;-69
2023/05/27 08:56:56;;;;;;;9.52;7.55;;;;;;;;;;5093018;28;20054;-69
2023/05/27 08:59:25;;;;;;;9.43;8.43;;;;;;;;;;5092287;28;20498;-69
2023/05/27 09:01:53;;;;;;;10.25;7.65;;;;;;;;;;5092498;28;20048;-69
2023/05/27 09:04:20;;;;;;;12.75;7.63;;;;;;;;;;5092812;28;20457;-68
2023/05/27 09:06:48;;;;;;;11.82;7.85;;;;;;;;;;5093749;28;20040;-69
2023/05/27 09:09:17;;;;;;;8.52;7.60;;;;;;;;;;5092340;28;20397;-69
2023/05/27 09:11:45;;;;;;;9.55;7.55;;;;;;;;;;5092335;28;20051;-67
2023/05/27 09:14:20;;;;;;;10.45;8.05;;;;;;;;;;5092581;28;20127;-69
2023/05/27 09:16:48;;;;;;;10.68;8.50;;;;;;;;;;5093508;28;20432;-69
2023/05/27 09:19:19;;;;;;;10.35;8.30;;;;;;;;;;5093139;28;20044;-69
2023/05/27 09:21:46;;;;;;;10.25;7.68;;;;;;;;;;5093406;28;20040;-69
2023/05/27 09:24:14;;;;;;;9.60;6.90;;;;;;;;;;5093264;28;20478;-70
2023/05/27 09:26:42;;;;;;;9.88;6.80;;;;;;;;;;5093295;28;20482;-69
2023/05/27 09:29:09;;;;;;;7.28;6.38;;;;;;;;;;5093064;28;20145;-69
2023/05/27 09:31:41;;;;;;;7.03;6.30;;;;;;;;;;5093140;28;20119;-69
2023/05/27 09:34:12;;;;;;;8.32;6.40;;;;;;;;;;5093284;28;20044;-70
2023/05/27 09:36:46;;;;;;;10.68;6.00;;;;;;;;;;5092932;28;20036;-69
2023/05/27 09:39:18;;;;;;;7.70;6.32;;;;;;;;;;5092983;28;20055;-69
2023/05/27 09:41:54;;;;;;;8.07;6.00;;;;;;;;;;5092956;28;20039;-69
2023/05/27 09:44:21;;;;;;;8.93;6.55;;;;;;;;;;5092980;28;20040;-69
2023/05/27 09:46:51;;;;;;;9.55;6.13;;;;;;;;;;5093003;28;20090;-70
2023/05/27 09:49:20;;;;;;;9.48;6.07;;;;;;;;;;5091718;28;20061;-68
2023/05/27 09:51:47;;;;;;;6.55;5.57;;;;;;;;;;5092852;28;20044;-68
2023/05/27 09:54:21;;;;;;;7.43;5.22;;;;;;;;;;5091817;28;20048;-68
2023/05/27 09:56:50;;;;;;;7.95;5.70;;;;;;;;;;5092796;28;20062;-68
2023/05/27 09:59:18;;;;;;;15.35;6.18;;;;;;;;;;5090157;28;20040;-68
2023/05/27 10:01:49;;;;;;;10.60;5.88;;;;;;;;;;5090040;28;20497;-68
2023/05/27 10:04:16;;;;;;;8.52;5.95;;;;;;;;;;5092354;28;20400;-68
2023/05/27 10:06:48;;;;;;;9.77;5.97;;;;;;;;;;5092310;28;20036;-66
2023/05/27 10:09:17;;;;;;;8.88;6.13;;;;;;;;;;5092328;28;20097;-70
2023/05/27 10:11:45;;;;;;;6.63;5.93;;;;;;;;;;5092589;28;20050;-70
2023/05/27 10:14:13;;;;;;;6.95;5.63;;;;;;;;;;5092503;28;20094;-69
2023/05/27 10:16:51;;;;;;;11.23;5.53;;;;;;;;;;5092383;28;20389;-69
2023/05/27 10:19:18;;;;;;;9.23;4.90;;;;;;;;;;5092459;28;20400;-69
2023/05/27 10:21:46;;;;;;;7.43;4.78;;;;;;;;;;5091921;28;20050;-69
2023/05/27 10:24:14;;;;;;;6.78;5.22;;;;;;;;;;5092205;28;20458;-69
2023/05/27 10:26:42;;;;;;;9.30;5.68;;;;;;;;;;5091146;28;20038;-69
2023/05/27 10:29:14;;;;;;;6.13;5.30;;;;;;;;;;5092173;28;20079;-69
2023/05/27 10:31:51;;;;;;;8.80;5.47;;;;;;;;;;5091282;28;20040;-69
2023/05/27 10:34:20;;;;;;;7.32;5.15;;;;;;;;;;5092659;28;20127;-69
2023/05/27 10:36:59;;;;;;;6.63;5.18;;;;;;;;;;5092517;28;20484;-69
2023/05/27 10:39:26;;;;;;;7.13;5.30;;;;;;;;;;5092153;28;20485;-69
2023/05/27 10:41:57;;;;;;;8.40;5.68;;;;;;;;;;5092408;28;20119;-70
2023/05/27 10:44:35;;;;;;;8.05;5.22;;;;;;;;;;5090290;28;20056;-70
2023/05/27 10:47:02;;;;;;;6.13;5.00;;;;;;;;;;5071862;28;20116;-70
2023/05/27 10:49:38;;;;;;;7.40;5.50;;;;;;;;;;5073865;28;20458;-69
2023/05/27 10:52:10;;;;;;;6.78;4.93;;;;;;;;;;5088718;28;20086;-69
2023/05/27 10:54:38;;;;;;;6.22;5.20;;;;;;;;;;5073344;28;20099;-71
2023/05/27 10:57:07;;;;;;;7.80;5.68;;;;;;;;;;5071650;28;20043;-70
2023/05/27 10:59:38;;;;;;;7.40;5.47;;;;;;;;;;5070283;28;20434;-70
2023/05/27 11:02:06;;;;;;;7.80;5.72;;;;;;;;;;5071001;28;20131;-70
2023/05/27 11:04:37;;;;;;;7.28;5.55;;;;;;;;;;5074815;28;20119;-70
2023/05/27 11:07:04;;;;;;;6.50;5.00;;;;;;;;;;5077093;28;20540;-68
2023/05/27 11:09:42;;;;;;;6.93;5.18;;;;;;;;;;5095389;28;20036;-67
2023/05/27 11:12:16;;;;;;;6.40;5.03;;;;;;;;;;5094002;28;20222;-68
2023/05/27 11:14:46;;;;;;;7.07;5.40;;;;;;;;;;5095470;28;20036;-69
2023/05/27 11:17:14;;;;;;;6.38;5.50;;;;;;;;;;5095518;28;20079;-69
2023/05/27 11:19:42;;;;;;;7.68;4.90;;;;;;;;;;5082590;28;20041;-69
2023/05/27 11:22:10;;;;;;;5.68;5.07;;;;;;;;;;5086476;28;20046;-70
2023/05/27 11:24:38;;;;;;;22.00;6.40;;;;;;;;;;5093868;28;20036;-70
2023/05/27 11:27:12;;;;;;;21.25;6.00;;;;;;;;;;5087177;28;20047;-69
2023/05/27 11:29:52;;;;;;;26.02;12.23;;;;;;;;;;5080773;28;20078;-69
2023/05/27 11:32:20;;;;;;;14.73;6.93;;;;;;;;;;5095090;28;20568;-69
2023/05/27 11:34:48;;;;;;;14.52;5.40;;;;;;;;;;5095192;28;20485;-69
2023/05/27 11:37:17;;;;;;;5.40;4.90;;;;;;;;;;5094027;28;20036;-68
2023/05/27 11:39:54;;;;;;;9.20;5.22;;;;;;;;;;5094594;28;20425;-68
2023/05/27 11:42:25;;;;;;;9.65;4.82;;;;;;;;;;5095177;28;20055;-69
2023/05/27 11:44:53;;;;;;;6.20;4.97;;;;;;;;;;5093942;28;20452;-68
2023/05/27 11:47:22;;;;;;;46.08;7.63;;;;;;;;;;5084765;28;20414;-68
2023/05/27 11:49:50;;;;;;;11.60;5.43;;;;;;;;;;5076796;28;20036;-67
2023/05/27 11:52:18;;;;;;;8.45;5.22;;;;;;;;;;5077909;28;20032;-68
2023/05/27 11:54:50;;;;;;;7.53;5.28;;;;;;;;;;5094854;28;20036;-67
2023/05/27 11:57:25;;;;;;;7.97;5.18;;;;;;;;;;5094869;28;20040;-67
2023/05/27 11:59:52;;;;;;;6.38;5.30;;;;;;;;;;5094669;28;20389;-68
2023/05/27 12:02:21;;;;;;;6.95;6.25;;;;;;;;;;5093456;28;20043;-68
2023/05/27 12:04:49;;;;;;;8.02;5.22;;;;;;;;;;5094523;28;20043;-68
2023/05/27 12:07:16;;;;;;;7.45;5.13;;;;;;;;;;5094586;28;20032;-68
2023/05/27 12:09:48;;;;;;;8.25;5.72;;;;;;;;;;5094366;28;20036;-69
2023/05/27 12:12:19;;;;;;;6.88;4.93;;;;;;;;;;5094441;28;20040;-68
2023/05/27 12:14:47;;;;;;;8.13;4.68;;;;;;;;;;5094387;28;20036;-68
2023/05/27 12:17:15;;;;;;;7.40;6.30;;;;;;;;;;5083427;28;20048;-69
2023/05/27 12:19:45;;;;;;;7.75;6.30;;;;;;;;;;5072415;28;20094;-69
2023/05/27 12:22:13;;;;;;;5.85;4.88;;;;;;;;;;5074027;28;20028;-69
2023/05/27 12:24:43;;;;;;;8.27;5.90;;;;;;;;;;5073665;28;20044;-69
2023/05/27 12:27:11;;;;;;;7.38;6.18;;;;;;;;;;5074181;28;20041;-69
2023/05/27 12:29:38;;;;;;;8.88;5.10;;;;;;;;;;5073612;28;20484;-69
2023/05/27 12:32:06;;;;;;;5.78;4.78;;;;;;;;;;5073822;28;20052;-69
2023/05/27 12:34:33;;;;;;;6.25;4.88;;;;;;;;;;5077115;28;20040;-69
2023/05/27 12:37:00;;;;;;;8.60;5.07;;;;;;;;;;5074771;28;20043;-72
2023/05/27 12:39:28;;;;;;;7.22;5.32;;;;;;;;;;5072302;28;20044;-68
2023/05/27 12:41:57;;;;;;;8.68;5.65;;;;;;;;;;5072103;28;20041;-69
2023/05/27 12:44:24;;;;;;;7.57;5.13;;;;;;;;;;5073577;28;20437;-72
2023/05/27 12:46:52;;;;;;;6.32;5.00;;;;;;;;;;5081679;28;20047;-67
2023/05/27 12:49:19;;;;;;;6.88;4.97;;;;;;;;;;5093409;28;20054;-66
2023/05/27 12:51:47;;;;;;;7.55;5.03;;;;;;;;;;5088419;28;20033;-72
2023/05/27 12:54:14;;;;;;;12.48;11.15;;;;;;;;;;5073925;28;20129;-70
2023/05/27 12:56:42;;;;;;;12.65;10.82;;;;;;;;;;5078409;28;20427;-70
2023/05/27 12:59:10;;;;;;;6.28;5.10;;;;;;;;;;5093438;28;20043;-68
2023/05/27 13:01:37;;;;;;;6.85;4.72;;;;;;;;;;5081678;28;20037;-68
2023/05/27 13:04:05;;;;;;;7.88;5.05;;;;;;;;;;5082700;28;20064;-69
2023/05/27 13:06:33;;;;;;;8.25;5.40;;;;;;;;;;5085570;28;20126;-74
2023/05/27 13:09:00;;;;;;;7.63;5.38;;;;;;;;;;5078688;28;20044;-74
2023/05/27 13:11:28;;;;;;;7.97;5.20;;;;;;;;;;5093128;28;20038;-73
2023/05/27 13:13:55;;;;;;;6.85;4.85;;;;;;;;;;5093203;28;20036;-74
2023/05/27 13:16:23;;;;;;;8.52;4.82;;;;;;;;;;5093128;28;20508;-74
2023/05/27 13:18:50;;;;;;;10.13;5.07;;;;;;;;;;5086741;28;20048;-74
2023/05/27 13:21:18;;;;;;;8.15;4.85;;;;;;;;;;5083391;28;20093;-75
2023/05/27 13:23:46;;;;;;;9.88;5.20;;;;;;;;;;5079380;28;20074;-74
2023/05/27 13:26:13;;;;;;;7.63;5.30;;;;;;;;;;5092245;28;20431;-73
2023/05/27 13:28:41;;;;;;;5.90;5.25;;;;;;;;;;5092329;28;20075;-72
2023/05/27 13:31:09;;;;;;;5.82;4.82;;;;;;;;;;5092906;28;20071;-68
2023/05/27 13:33:37;;;;;;;6.72;4.95;;;;;;;;;;5092876;28;20043;-71
2023/05/27 13:36:05;;;;;;;8.15;5.00;;;;;;;;;;5091613;28;20055;-72
2023/05/27 13:38:33;;;;;;;49.72;42.22;;;;;;;;;;5092778;28;20044;-73
2023/05/27 13:41:00;;;;;;;10.50;6.53;;;;;;;;;;5092801;28;20031;-71
2023/05/27 13:43:28;;;;;;;6.53;3.97;;;;;;;;;;5091491;28;20044;-72
2023/05/27 13:45:55;;;;;;;7.85;4.47;;;;;;;;;;5092671;28;20052;-74
2023/05/27 13:48:23;;;;;;;9.90;6.10;;;;;;;;;;5092521;28;20059;-72
2023/05/27 13:50:50;;;;;;;8.27;4.18;;;;;;;;;;5091154;28;20050;-72
2023/05/27 13:53:18;;;;;;;13.68;10.05;;;;;;;;;;5084300;28;20028;-74
2023/05/27 13:55:47;;;;;;;8.80;7.05;;;;;;;;;;5079141;28;20070;-73
2023/05/27 13:58:16;;;;;;;13.70;8.10;;;;;;;;;;5092477;28;20156;-71
2023/05/27 14:00:44;;;;;;;11.50;5.03;;;;;;;;;;5080423;28;20040;-71
2023/05/27 14:03:11;;;;;;;9.15;5.63;;;;;;;;;;5091529;28;20044;-71
2023/05/27 14:05:42;;;;;;;9.85;5.90;;;;;;;;;;5092907;28;20127;-71
2023/05/27 14:08:13;;;;;;;11.57;4.68;;;;;;;;;;5092510;28;20458;-72
2023/05/27 14:10:41;;;;;;;8.48;4.75;;;;;;;;;;5092432;28;20123;-71
2023/05/27 14:13:08;;;;;;;234.85;139.65;;;;;;;;;;5092317;28;20477;-71
2023/05/27 14:15:36;;;;;;;124.57;86.07;;;;;;;;;;5093186;28;20079;-71
2023/05/27 14:18:05;;;;;;;14.95;11.45;;;;;;;;;;5085429;28;20071;-72
2023/05/27 14:20:34;;;;;;;28.58;19.58;;;;;;;;;;5076664;28;20040;-70
2023/05/27 14:23:04;;;;;;;16.30;13.00;;;;;;;;;;5092251;28;20024;-71
2023/05/27 14:25:31;;;;;;;14.18;10.07;;;;;;;;;;5086708;28;20067;-71
2023/05/27 14:28:03;;;;;;;10.85;8.82;;;;;;;;;;5063407;28;20048;-71
2023/05/27 14:30:35;;;;;;;11.43;8.82;;;;;;;;;;5080142;28;20518;-71
2023/05/27 14:33:07;;;;;;;13.82;10.35;;;;;;;;;;5085316;28;20083;-71
2023/05/27 14:35:38;;;;;;;17.00;11.18;;;;;;;;;;5077084;28;20041;-70
2023/05/27 14:38:06;;;;;;;14.95;11.23;;;;;;;;;;5073091;28;20032;-72
2023/05/27 14:40:34;;;;;;;12.75;9.00;;;;;;;;;;5074142;28;20040;-70
2023/05/27 14:43:02;;;;;;;18.38;9.25;;;;;;;;;;5075698;28;20056;-71
2023/05/27 14:45:29;;;;;;;12.65;9.90;;;;;;;;;;5074840;28;20127;-71
2023/05/27 14:47:59;;;;;;;13.77;9.13;;;;;;;;;;5075492;28;20070;-70
2023/05/27 14:50:27;;;;;;;14.48;10.45;;;;;;;;;;5075603;28;20043;-70
2023/05/27 14:52:57;;;;;;;15.45;9.68;;;;;;;;;;5074321;28;20043;-70
2023/05/27 14:55:25;;;;;;;17.92;9.15;;;;;;;;;;5075559;28;20555;-70
2023/05/27 14:57:55;;;;;;;14.15;9.25;;;;;;;;;;5075326;28;20107;-71